createdAt,value
2023-05-10T00:01:53.029Z,2.40
2023-05-10T00:04:21.778Z,1.90
2023-05-10T00:06:50.047Z,2.03
2023-05-10T00:09:19.471Z,2.22
2023-05-10T00:11:47.565Z,3.80
2023-05-10T00:14:15.693Z,2.53
2023-05-10T00:16:43.874Z,2.30
2023-05-10T00:19:12.098Z,3.65
2023-05-10T00:21:40.218Z,3.03
2023-05-10T00:24:08.473Z,3.45
2023-05-10T00:26:37.889Z,2.50
2023-05-10T00:29:06.059Z,4.03
2023-05-10T00:31:34.191Z,4.35
2023-05-10T00:34:02.356Z,3.40
2023-05-10T00:36:32.101Z,3.92
2023-05-10T00:39:00.294Z,2.97
2023-05-10T00:41:28.413Z,2.83
2023-05-10T00:43:58.049Z,3.38
2023-05-10T00:46:27.005Z,3.42
2023-05-10T00:48:55.521Z,3.03
2023-05-10T00:51:23.825Z,3.10
2023-05-10T00:53:53.659Z,3.33
2023-05-10T00:56:23.907Z,3.42
2023-05-10T00:58:52.447Z,1.77
2023-05-10T01:01:22.142Z,1.15
2023-05-10T01:03:50.840Z,1.35
2023-05-10T01:06:18.967Z,1.33
2023-05-10T01:08:47.332Z,1.85
2023-05-10T01:11:16.104Z,1.20
2023-05-10T01:13:52.199Z,1.88
2023-05-10T01:16:21.908Z,3.13
2023-05-10T01:18:51.576Z,2.10
2023-05-10T01:21:29.651Z,2.53
2023-05-10T01:24:30.163Z,2.35
2023-05-10T01:27:28.449Z,2.67
2023-05-10T01:30:37.162Z,2.53
2023-05-10T01:33:20.046Z,4.45
2023-05-10T01:35:57.284Z,2.65
2023-05-10T01:38:38.879Z,2.33
2023-05-10T01:41:19.665Z,1.85
2023-05-10T01:43:59.321Z,1.65
2023-05-10T01:46:37.557Z,1.23
2023-05-10T01:49:12.598Z,0.98
2023-05-10T01:51:48.778Z,1.38
2023-05-10T01:54:22.175Z,1.42
2023-05-10T01:56:58.116Z,1.13
2023-05-10T01:59:33.612Z,0.68
2023-05-10T02:02:04.234Z,1.58
2023-05-10T02:04:39.177Z,1.35
2023-05-10T02:07:08.988Z,0.93
2023-05-10T02:09:39.075Z,1.75
2023-05-10T02:12:09.570Z,1.70
2023-05-10T02:14:39.222Z,1.90
2023-05-10T02:17:10.822Z,1.17
2023-05-10T02:19:44.001Z,2.67
2023-05-10T02:22:13.641Z,1.20
2023-05-10T02:24:43.268Z,1.05
2023-05-10T02:27:13.683Z,1.00
2023-05-10T02:29:42.971Z,1.40
2023-05-10T02:32:14.573Z,0.85
2023-05-10T02:34:46.471Z,0.98
2023-05-10T02:37:19.349Z,1.00
2023-05-10T02:39:49.063Z,1.40
2023-05-10T02:42:21.557Z,0.93
2023-05-10T02:44:54.190Z,1.25
2023-05-10T02:47:22.617Z,1.02
2023-05-10T02:49:52.123Z,1.02
2023-05-10T02:52:27.482Z,1.10
2023-05-10T02:55:02.764Z,1.13
2023-05-10T02:57:36.048Z,1.08
2023-05-10T03:00:05.929Z,1.58
2023-05-10T03:02:34.571Z,1.25
2023-05-10T03:05:04.472Z,2.42
2023-05-10T03:07:32.782Z,2.28
2023-05-10T03:10:01.498Z,1.65
2023-05-10T03:12:54.159Z,1.42
2023-05-10T03:15:33.757Z,1.73
2023-05-10T03:18:09.667Z,1.92
2023-05-10T03:20:44.868Z,2.25
2023-05-10T03:23:24.500Z,1.70
2023-05-10T03:25:53.829Z,2.63
2023-05-10T03:28:23.609Z,2.03
2023-05-10T03:30:54.349Z,1.70
2023-05-10T03:33:22.540Z,1.95
2023-05-10T03:35:52.738Z,3.00
2023-05-10T03:38:20.914Z,2.85
2023-05-10T03:40:49.019Z,3.90
2023-05-10T03:43:17.223Z,2.25
2023-05-10T03:45:45.342Z,2.60
2023-05-10T03:48:14.548Z,1.95
2023-05-10T03:50:43.802Z,2.45
2023-05-10T03:53:13.332Z,1.98
2023-05-10T03:55:41.370Z,2.75
2023-05-10T03:58:12.993Z,3.05
2023-05-10T04:00:44.576Z,2.22
2023-05-10T04:03:13.663Z,3.20
2023-05-10T04:05:41.994Z,2.95
2023-05-10T04:08:10.205Z,2.58
2023-05-10T04:10:39.670Z,3.78
2023-05-10T04:13:07.857Z,2.22
2023-05-10T04:15:36.530Z,2.97
2023-05-10T04:18:06.523Z,3.28
2023-05-10T04:20:36.499Z,5.60
2023-05-10T04:23:04.778Z,4.53
2023-05-10T04:25:41.441Z,2.88
2023-05-10T04:28:11.307Z,2.47
2023-05-10T04:30:39.761Z,4.50
2023-05-10T04:33:08.429Z,4.45
2023-05-10T04:35:37.311Z,3.72
2023-05-10T04:38:05.621Z,5.07
2023-05-10T04:40:33.833Z,5.88
2023-05-10T04:43:02.098Z,4.85
2023-05-10T04:45:31.844Z,5.55
2023-05-10T04:48:00.265Z,7.95
2023-05-10T04:50:28.797Z,3.75
2023-05-10T04:53:11.286Z,8.38
2023-05-10T04:55:41.280Z,7.57
2023-05-10T04:58:13.247Z,6.80
2023-05-10T05:00:43.230Z,8.35
2023-05-10T05:03:11.837Z,9.63
2023-05-10T05:05:40.253Z,7.75
2023-05-10T05:08:08.448Z,8.02
2023-05-10T05:10:36.660Z,9.75
2023-05-10T05:13:05.005Z,15.77
2023-05-10T05:15:33.432Z,15.05
2023-05-10T05:18:03.556Z,15.77
2023-05-10T05:20:34.890Z,14.00
2023-05-10T05:23:03.308Z,13.60
2023-05-10T05:25:31.725Z,15.57
2023-05-10T05:28:00.126Z,15.07
2023-05-10T05:30:28.537Z,16.98
2023-05-10T05:32:57.657Z,18.52
2023-05-10T05:35:27.439Z,15.65
2023-05-10T05:37:55.806Z,14.18
2023-05-10T05:40:24.168Z,15.52
2023-05-10T05:42:53.420Z,15.73
2023-05-10T05:45:22.254Z,17.38
2023-05-10T05:47:50.811Z,20.25
2023-05-10T05:50:20.575Z,17.92
2023-05-10T05:52:58.561Z,18.67
2023-05-10T05:55:26.910Z,17.35
2023-05-10T05:57:56.446Z,20.35
2023-05-10T06:00:27.244Z,17.60
2023-05-10T06:02:55.588Z,18.10
2023-05-10T06:05:23.930Z,19.40
2023-05-10T06:07:56.038Z,23.02
2023-05-10T06:10:29.310Z,20.65
2023-05-10T06:12:57.755Z,22.13
2023-05-10T06:15:26.249Z,19.17
2023-05-10T06:17:54.496Z,24.23
2023-05-10T06:20:22.679Z,21.08
2023-05-10T06:22:53.461Z,25.95
2023-05-10T06:25:21.763Z,22.23
2023-05-10T06:27:53.572Z,26.15
2023-05-10T06:30:24.089Z,23.02
2023-05-10T06:32:55.680Z,27.80
2023-05-10T06:35:24.274Z,29.48
2023-05-10T06:37:52.942Z,23.55
2023-05-10T06:40:21.679Z,27.60
2023-05-10T06:42:51.562Z,21.90
2023-05-10T06:45:20.225Z,27.50
2023-05-10T06:47:48.941Z,27.38
2023-05-10T06:50:17.229Z,25.45
2023-05-10T06:52:45.500Z,25.70
2023-05-10T06:55:13.727Z,23.63
2023-05-10T06:57:42.195Z,20.98
2023-05-10T07:00:12.822Z,23.35
2023-05-10T07:02:41.119Z,25.05
2023-05-10T07:05:10.586Z,25.15
2023-05-10T07:07:38.803Z,27.50
2023-05-10T07:10:09.054Z,25.40
2023-05-10T07:12:37.290Z,23.85
2023-05-10T07:15:06.701Z,26.13
2023-05-10T07:17:36.661Z,24.08
2023-05-10T07:20:06.137Z,26.70
2023-05-10T07:22:34.353Z,24.95
2023-05-10T07:25:03.302Z,28.50
2023-05-10T07:27:31.567Z,28.30
2023-05-10T07:29:59.817Z,26.15
2023-05-10T07:32:28.383Z,28.23
2023-05-10T07:34:58.109Z,27.98
2023-05-10T07:37:26.409Z,27.95
2023-05-10T07:39:54.654Z,31.55
2023-05-10T07:42:22.851Z,25.25
2023-05-10T07:44:51.131Z,25.27
2023-05-10T07:47:19.843Z,24.30
2023-05-10T07:49:48.188Z,21.75
2023-05-10T07:52:18.053Z,21.75
2023-05-10T07:54:46.997Z,25.48
2023-05-10T07:57:18.532Z,24.48
2023-05-10T07:59:47.857Z,22.77
2023-05-10T08:02:17.891Z,21.92
2023-05-10T08:04:46.618Z,19.25
2023-05-10T08:07:15.062Z,19.95
2023-05-10T08:09:45.019Z,17.73
2023-05-10T08:12:13.656Z,20.08
2023-05-10T08:14:43.446Z,18.63
2023-05-10T08:17:11.665Z,20.65
2023-05-10T08:19:40.046Z,17.70
2023-05-10T08:22:08.555Z,17.02
2023-05-10T08:24:39.319Z,17.80
2023-05-10T08:27:09.556Z,17.50
2023-05-10T08:29:49.582Z,19.02
2023-05-10T08:32:18.832Z,17.33
2023-05-10T08:34:47.338Z,19.70
2023-05-10T08:37:15.770Z,18.02
2023-05-10T08:39:44.216Z,21.58
2023-05-10T08:42:18.860Z,20.70
2023-05-10T08:44:50.290Z,18.00
2023-05-10T08:47:21.254Z,24.08
2023-05-10T08:50:00.451Z,17.42
2023-05-10T08:52:32.074Z,19.08
2023-05-10T08:55:01.212Z,21.65
2023-05-10T08:57:31.051Z,21.50
2023-05-10T08:59:59.835Z,19.88
2023-05-10T09:02:28.987Z,20.40
2023-05-10T09:04:57.403Z,17.63
2023-05-10T09:07:25.883Z,17.02
2023-05-10T09:09:56.079Z,20.13
2023-05-10T09:12:24.803Z,17.27
2023-05-10T09:14:57.694Z,17.27
2023-05-10T09:17:27.739Z,22.17
2023-05-10T09:20:00.676Z,18.75
2023-05-10T09:22:29.377Z,19.02
2023-05-10T09:25:09.525Z,16.83
2023-05-10T09:27:38.590Z,15.15
2023-05-10T09:30:11.399Z,15.70
2023-05-10T09:32:41.987Z,16.08
2023-05-10T09:35:11.771Z,15.18
2023-05-10T09:37:42.836Z,14.90
2023-05-10T09:40:17.026Z,17.75
2023-05-10T09:42:55.790Z,17.13
2023-05-10T09:45:28.243Z,13.90
2023-05-10T09:47:57.098Z,15.13
2023-05-10T09:50:25.907Z,13.27
2023-05-10T09:52:58.661Z,13.93
2023-05-10T09:55:41.037Z,13.13
2023-05-10T09:58:11.919Z,17.50
2023-05-10T10:00:44.293Z,15.73
2023-05-10T10:03:16.972Z,14.75
2023-05-10T10:05:47.009Z,18.30
2023-05-10T10:08:17.556Z,21.38
2023-05-10T10:10:47.346Z,20.60
2023-05-10T10:13:16.386Z,17.17
2023-05-10T10:15:46.920Z,17.08
2023-05-10T10:18:16.671Z,17.83
2023-05-10T10:20:45.149Z,20.92
2023-05-10T10:23:14.544Z,18.65
2023-05-10T10:25:45.963Z,19.23
2023-05-10T10:28:28.863Z,15.85
2023-05-10T10:31:12.732Z,13.65
2023-05-10T10:33:58.753Z,17.42
2023-05-10T10:36:28.268Z,18.35
2023-05-10T10:39:05.046Z,17.02
2023-05-10T10:41:36.270Z,16.00
2023-05-10T10:44:40.163Z,13.23
2023-05-10T10:47:30.792Z,14.43
2023-05-10T10:50:09.010Z,13.98
2023-05-10T10:52:38.808Z,14.13
2023-05-10T10:55:10.335Z,14.57
2023-05-10T10:57:50.723Z,14.48
2023-05-10T11:00:29.053Z,14.63
2023-05-10T11:03:05.237Z,15.45
2023-05-10T11:05:43.803Z,15.75
2023-05-10T11:08:22.950Z,16.00
2023-05-10T11:11:05.611Z,14.63
2023-05-10T11:13:36.942Z,15.65
2023-05-10T11:16:21.504Z,19.50
2023-05-10T11:19:03.867Z,15.10
2023-05-10T11:21:33.417Z,12.93
2023-05-10T11:24:07.090Z,12.63
2023-05-10T11:26:38.137Z,20.25
2023-05-10T11:29:06.347Z,16.58
2023-05-10T11:31:34.909Z,16.63
2023-05-10T11:34:04.563Z,18.40
2023-05-10T11:36:37.785Z,18.10
2023-05-10T11:39:06.830Z,16.40
2023-05-10T11:41:35.498Z,17.48
2023-05-10T11:44:04.520Z,16.33
2023-05-10T11:46:33.043Z,16.98
2023-05-10T11:49:05.623Z,14.40
2023-05-10T11:51:37.385Z,15.82
2023-05-10T11:54:10.238Z,15.38
2023-05-10T11:56:39.484Z,15.15
2023-05-10T11:59:08.858Z,18.58
2023-05-10T12:01:40.999Z,14.95
2023-05-10T12:04:11.060Z,16.95
2023-05-10T12:06:43.394Z,14.82
2023-05-10T12:09:11.850Z,12.98
2023-05-10T12:11:44.355Z,14.98
2023-05-10T12:14:13.152Z,13.00
2023-05-10T12:16:41.552Z,12.73
2023-05-10T12:19:11.784Z,16.42
2023-05-10T12:21:42.320Z,11.57
2023-05-10T12:24:11.481Z,13.90
2023-05-10T12:26:39.755Z,11.30
2023-05-10T12:29:16.655Z,10.63
2023-05-10T12:31:57.056Z,12.50
2023-05-10T12:34:30.300Z,11.85
2023-05-10T12:36:58.816Z,12.88
2023-05-10T12:39:27.141Z,10.98
2023-05-10T12:41:55.566Z,13.27
2023-05-10T12:44:23.857Z,13.13
2023-05-10T12:46:51.985Z,11.18
2023-05-10T12:49:21.365Z,12.73
2023-05-10T12:51:50.950Z,9.57
2023-05-10T12:54:19.258Z,9.70
2023-05-10T12:56:47.498Z,10.20
2023-05-10T12:59:15.782Z,9.90
2023-05-10T13:01:43.949Z,9.02
2023-05-10T13:04:12.332Z,9.77
2023-05-10T13:06:40.609Z,7.78
2023-05-10T13:09:10.179Z,9.82
2023-05-10T13:11:38.686Z,8.13
2023-05-10T13:14:06.975Z,12.48
2023-05-10T13:16:35.628Z,9.65
2023-05-10T13:19:04.136Z,8.18
2023-05-10T13:21:32.525Z,10.05
2023-05-10T13:24:01.068Z,9.00
2023-05-10T13:26:34.129Z,8.60
2023-05-10T13:29:02.455Z,7.78
2023-05-10T13:31:31.096Z,8.60
2023-05-10T13:33:59.402Z,8.73
2023-05-10T13:36:27.808Z,10.10
2023-05-10T13:38:56.158Z,9.85
2023-05-10T13:41:24.461Z,9.10
2023-05-10T13:43:54.005Z,9.43
2023-05-10T13:46:22.280Z,12.05
2023-05-10T13:48:51.687Z,11.00
2023-05-10T13:51:19.971Z,9.23
2023-05-10T13:53:49.062Z,13.18
2023-05-10T13:56:17.503Z,8.95
2023-05-10T13:58:45.759Z,11.27
2023-05-10T14:01:15.622Z,10.20
2023-05-10T14:03:44.132Z,10.93
2023-05-10T14:06:12.462Z,9.00
2023-05-10T14:08:41.158Z,9.20
2023-05-10T14:11:09.517Z,10.32
2023-05-10T14:13:37.932Z,9.57
2023-05-10T14:16:07.186Z,7.18
2023-05-10T14:18:36.962Z,7.57
2023-05-10T14:21:06.035Z,7.70
2023-05-10T14:23:34.354Z,9.70
2023-05-10T14:26:03.841Z,10.50
2023-05-10T14:28:32.589Z,9.25
2023-05-10T14:31:01.037Z,9.95
2023-05-10T14:33:29.688Z,8.65
2023-05-10T14:36:00.945Z,7.32
2023-05-10T14:38:29.450Z,8.98
2023-05-10T14:40:58.542Z,9.73
2023-05-10T14:43:28.492Z,11.52
2023-05-10T14:45:57.164Z,16.65
2023-05-10T14:48:25.530Z,14.40
2023-05-10T14:50:53.912Z,13.80
2023-05-10T14:53:25.618Z,12.70
2023-05-10T14:55:53.780Z,13.05
2023-05-10T14:58:21.987Z,15.68
2023-05-10T15:00:50.132Z,11.23
2023-05-10T15:03:18.857Z,11.60
2023-05-10T15:05:58.595Z,10.57
2023-05-10T15:08:28.653Z,9.20
2023-05-10T15:10:57.246Z,9.77
2023-05-10T15:13:25.521Z,9.32
2023-05-10T15:15:54.101Z,11.57
2023-05-10T15:18:24.477Z,8.25
2023-05-10T15:20:52.745Z,8.27
2023-05-10T15:23:21.057Z,8.32
2023-05-10T15:25:53.236Z,11.65
2023-05-10T15:28:21.603Z,11.27
2023-05-10T15:30:50.135Z,9.02
2023-05-10T15:33:18.315Z,7.78
2023-05-10T15:35:46.836Z,8.18
2023-05-10T15:38:15.226Z,8.13
2023-05-10T15:40:47.268Z,8.70
2023-05-10T15:43:17.262Z,8.93
2023-05-10T15:45:45.639Z,6.97
2023-05-10T15:48:13.971Z,7.63
2023-05-10T15:50:42.219Z,8.40
2023-05-10T15:53:10.336Z,7.57
2023-05-10T15:55:38.679Z,6.82
2023-05-10T15:58:10.109Z,7.25
2023-05-10T16:00:40.475Z,7.70
2023-05-10T16:03:09.063Z,7.50
2023-05-10T16:05:37.337Z,6.35
2023-05-10T16:08:05.676Z,11.45
2023-05-10T16:10:34.514Z,6.18
2023-05-10T16:13:03.828Z,6.68
2023-05-10T16:15:34.951Z,6.93
2023-05-10T16:18:04.830Z,11.15
2023-05-10T16:20:34.216Z,12.27
2023-05-10T16:23:08.169Z,8.63
2023-05-10T16:25:36.970Z,8.45
2023-05-10T16:28:05.401Z,6.80
2023-05-10T16:30:43.390Z,8.93
2023-05-10T16:33:19.797Z,9.13
2023-05-10T16:36:07.635Z,9.20
2023-05-10T16:38:37.920Z,7.93
2023-05-10T16:41:06.800Z,9.65
2023-05-10T16:43:35.822Z,7.25
2023-05-10T16:46:04.084Z,5.13
2023-05-10T16:48:35.879Z,7.15
2023-05-10T16:51:04.501Z,7.57
2023-05-10T16:53:32.820Z,7.88
2023-05-10T16:56:01.366Z,7.07
2023-05-10T16:58:29.610Z,8.07
2023-05-10T17:00:57.916Z,7.90
2023-05-10T17:03:26.313Z,7.78
2023-05-10T17:05:56.268Z,6.40
2023-05-10T17:08:24.706Z,6.38
2023-05-10T17:10:53.022Z,9.82
2023-05-10T17:13:21.339Z,6.85
2023-05-10T17:15:49.870Z,7.80
2023-05-10T17:18:19.765Z,8.00
2023-05-10T17:20:48.521Z,6.35
2023-05-10T17:23:18.249Z,7.75
2023-05-10T17:25:46.605Z,6.60
2023-05-10T17:28:14.930Z,5.35
2023-05-10T17:30:43.404Z,5.72
2023-05-10T17:33:18.651Z,7.68
2023-05-10T17:35:49.886Z,8.20
2023-05-10T17:38:26.045Z,13.85
2023-05-10T17:40:54.915Z,5.78
2023-05-10T17:43:23.937Z,7.40
2023-05-10T17:45:53.074Z,8.82
2023-05-10T17:48:22.007Z,7.28
2023-05-10T17:50:52.865Z,4.35
2023-05-10T17:53:22.955Z,5.68
2023-05-10T17:55:53.802Z,5.57
2023-05-10T17:58:22.268Z,10.90
2023-05-10T18:00:50.981Z,6.55
2023-05-10T18:03:19.672Z,9.10
2023-05-10T18:05:49.480Z,6.25
2023-05-10T18:08:22.585Z,6.60
2023-05-10T18:10:55.636Z,6.80
2023-05-10T18:13:24.564Z,6.80
2023-05-10T18:15:57.997Z,6.72
2023-05-10T18:18:26.808Z,4.75
2023-05-10T18:20:59.812Z,5.75
2023-05-10T18:23:29.247Z,6.18
2023-05-10T18:26:12.994Z,7.45
2023-05-10T18:29:07.894Z,5.90
2023-05-10T18:31:45.943Z,7.13
2023-05-10T18:34:25.486Z,6.18
2023-05-10T18:36:54.498Z,6.25
2023-05-10T18:39:23.069Z,5.30
2023-05-10T18:41:53.118Z,6.47
2023-05-10T18:44:23.213Z,6.63
2023-05-10T18:46:54.108Z,8.65
2023-05-10T18:49:32.676Z,9.48
2023-05-10T18:52:04.470Z,9.23
2023-05-10T18:54:45.710Z,6.80
2023-05-10T18:57:27.285Z,7.63
2023-05-10T19:00:01.453Z,8.73
2023-05-10T19:02:29.954Z,8.05
2023-05-10T19:04:59.812Z,6.55
2023-05-10T19:07:43.354Z,6.68
2023-05-10T19:10:27.790Z,9.70
2023-05-10T19:13:02.465Z,8.75
2023-05-10T19:15:53.784Z,8.88
2023-05-10T19:18:22.589Z,6.75
2023-05-10T19:20:58.752Z,9.00
2023-05-10T19:24:08.119Z,7.68
2023-05-10T19:26:46.955Z,8.57
2023-05-10T19:29:30.847Z,8.52
2023-05-10T19:32:11.377Z,8.50
2023-05-10T19:34:56.158Z,7.80
2023-05-10T19:37:55.650Z,9.63
2023-05-10T20:01:16.342Z,8.40
2023-05-10T20:03:46.097Z,9.60
2023-05-10T20:06:14.453Z,10.25
2023-05-10T20:08:42.637Z,10.57
2023-05-10T20:11:11.221Z,10.63
2023-05-10T20:13:39.828Z,10.70
2023-05-10T20:16:07.992Z,9.68
2023-05-10T20:18:38.006Z,8.98
2023-05-10T20:21:07.796Z,8.73
2023-05-10T20:23:35.937Z,8.48
2023-05-10T20:26:04.400Z,11.23
2023-05-10T20:28:32.603Z,13.52
2023-05-10T20:31:02.007Z,8.77
2023-05-10T20:33:30.681Z,9.57
2023-05-10T20:35:58.835Z,10.82
2023-05-10T20:38:28.512Z,9.50
2023-05-10T20:40:56.625Z,10.27
2023-05-10T20:43:24.866Z,9.13
2023-05-10T20:45:54.013Z,9.45
2023-05-10T20:48:22.879Z,9.63
2023-05-10T20:50:51.712Z,8.65
2023-05-10T20:53:19.920Z,11.38
2023-05-10T20:55:49.349Z,8.80
2023-05-10T20:58:17.688Z,15.52
2023-05-10T21:00:45.897Z,11.60
2023-05-10T21:03:15.611Z,11.05
2023-05-10T21:05:43.881Z,11.73
2023-05-10T21:08:11.978Z,10.50
2023-05-10T21:10:40.360Z,11.10
2023-05-10T21:13:09.857Z,9.35
2023-05-10T21:15:38.017Z,10.55
2023-05-10T21:18:06.807Z,10.93
2023-05-10T21:20:34.916Z,12.48
2023-05-10T21:23:03.022Z,9.43
2023-05-10T21:25:31.157Z,13.13
2023-05-10T21:27:59.251Z,12.45
2023-05-10T21:30:29.616Z,15.13
2023-05-10T21:32:59.677Z,10.82
2023-05-10T21:35:28.182Z,9.20
2023-05-10T21:37:56.548Z,12.68
2023-05-10T21:40:25.124Z,15.32
2023-05-10T21:42:53.241Z,10.52
2023-05-10T21:45:21.702Z,10.32
2023-05-10T21:47:51.248Z,14.02
2023-05-10T21:50:19.949Z,11.23
2023-05-10T21:52:48.236Z,10.38
2023-05-10T21:55:17.192Z,10.80
2023-05-10T21:57:45.594Z,10.60
2023-05-10T22:00:16.293Z,10.88
2023-05-10T22:02:44.745Z,13.48
2023-05-10T22:05:14.426Z,11.15
2023-05-10T22:07:42.523Z,13.38
2023-05-10T22:10:11.301Z,12.82
2023-05-10T22:12:39.383Z,14.20
2023-05-10T22:15:10.866Z,10.48
2023-05-10T22:17:40.431Z,12.50
2023-05-10T22:20:10.310Z,17.13
2023-05-10T22:22:39.787Z,11.43
2023-05-10T22:25:08.930Z,13.45
2023-05-10T22:27:37.523Z,13.55
2023-05-10T22:30:08.572Z,8.90
2023-05-10T22:32:36.898Z,11.05
2023-05-10T22:35:05.557Z,10.18
2023-05-10T22:37:33.707Z,10.48
2023-05-10T22:40:03.782Z,7.85
2023-05-10T22:42:32.009Z,8.25
2023-05-10T22:45:00.136Z,7.07
2023-05-10T22:47:28.320Z,6.50
2023-05-10T22:49:58.206Z,7.07
2023-05-10T22:52:26.789Z,6.63
2023-05-10T22:54:54.879Z,8.25
2023-05-10T22:57:24.838Z,5.97
2023-05-10T22:59:53.865Z,6.63
2023-05-10T23:02:22.034Z,5.53
2023-05-10T23:04:50.239Z,4.88
2023-05-10T23:07:18.425Z,4.15
2023-05-10T23:09:46.883Z,5.57
2023-05-10T23:12:14.980Z,6.22
2023-05-10T23:14:46.314Z,6.10
2023-05-10T23:17:14.446Z,4.13
2023-05-10T23:19:42.430Z,4.90
2023-05-10T23:22:10.859Z,5.75
2023-05-10T23:24:39.175Z,5.30
2023-05-10T23:27:07.391Z,4.80
2023-05-10T23:29:35.456Z,6.43
2023-05-10T23:32:05.331Z,5.57
2023-05-10T23:34:33.406Z,7.22
2023-05-10T23:37:01.553Z,6.68
2023-05-10T23:39:29.727Z,5.53
2023-05-10T23:41:57.836Z,5.53
2023-05-10T23:44:25.908Z,5.13
2023-05-10T23:46:54.008Z,4.70
2023-05-10T23:49:23.497Z,3.90
2023-05-10T23:51:51.602Z,5.07
2023-05-10T23:54:19.632Z,3.70
2023-05-10T23:56:48.226Z,6.18
2023-05-10T23:59:16.275Z,4.82
